Island Venture — WDG3765 — position and weather

sailwx.info

Track history (hours):
 
Tides and Currents Weather Stations Pressure Air Temp Water Temp Dewpoint Dewpoint Depression Visibility Wind Speed Wind Dir Waves Ship Positions

Island Venture

Owner: Island Tug and Barge, Seattle, WA. More information available from US FCC via Universal Licensing System and Coast Guard Vessel Documentation Center.

Last reported at 2016-Feb-13 16:33 UTC. Time now 2016-Feb-13 17:17 UTC.
Position N 47°34' W 122°21'.

Type: Tug. MMSI: 367529420.

Date/timePositionNaut miles runAvg speedWind from/ knotsBaromVisibWave heightAir tempDewpointWater temp
2016-Feb-13 16:33N 47°34' W 122°21'0 0.0
2016-Feb-13 15:33N 47°34' W 122°21'0 0.0
2016-Feb-13 14:33N 47°34' W 122°21'0 0.0
2016-Feb-13 13:33N 47°34' W 122°21'0 0.0
2016-Feb-13 12:33N 47°34' W 122°21'0 0.0
2016-Feb-13 11:33N 47°34' W 122°21'0 0.0
2016-Feb-13 10:33N 47°34' W 122°21'0 0.0
2016-Feb-13 09:33N 47°34' W 122°21'0 0.0
2016-Feb-13 08:33N 47°34' W 122°21'0 0.0
2016-Feb-13 07:33N 47°34' W 122°21'0 0.0
2016-Feb-13 06:33N 47°34' W 122°21'0 0.1
2016-Feb-13 05:33N 47°34' W 122°21'0 0.0
2016-Feb-13 04:33N 47°34' W 122°21'1 0.8
2016-Feb-13 03:33N 47°34' W 122°21'3 3.3
2016-Feb-13 02:33N 47°35' W 122°26'6 6.3
2016-Feb-13 01:33N 47°29' W 122°30'7 6.8
2016-Feb-13 00:33N 47°23' W 122°32'6 5.4
2016-Feb-12 23:31N 47°17' W 122°32'7 6.6
2016-Feb-12 22:29N 47°11' W 122°37'2 0.4
2016-Feb-12 16:28N 47°13' W 122°35'7 7.4
2016-Feb-12 15:33N 47°20' W 122°33'8 7.7
2016-Feb-12 14:33N 47°27' W 122°31'8 8.2
2016-Feb-12 13:33N 47°35' W 122°26'3 3.1
2016-Feb-12 12:33N 47°34' W 122°21'2 1.8
2016-Feb-12 11:33N 47°33' W 122°20'2 1.6
2016-Feb-12 10:33N 47°34' W 122°21'3 3.2
2016-Feb-12 09:33N 47°35' W 122°26'7 7.2
2016-Feb-12 08:33N 47°28' W 122°31'8 7.7
2016-Feb-12 07:33N 47°21' W 122°33'9 8.9
2016-Feb-12 06:29N 47°11' W 122°37'6 0.3
2016-Feb-11 11:20N 47°07' W 122°42'5 5.6
2016-Feb-11 10:23N 47°11' W 122°37'6 7.1
2016-Feb-11 09:31N 47°16' W 122°33'7 6.9
2016-Feb-11 08:33N 47°23' W 122°32'6 6.5
2016-Feb-11 07:33N 47°29' W 122°30'7 7.2
2016-Feb-11 06:33N 47°36' W 122°24'2 2.3
2016-Feb-11 05:33N 47°34' W 122°21'1 0.9
2016-Feb-11 04:33N 47°35' W 122°22'1 1.4
2016-Feb-11 03:33N 47°34' W 122°21'0 0.3
2016-Feb-11 02:33N 47°34' W 122°21'0 0.0
2016-Feb-11 01:33N 47°34' W 122°21'2 1.7
2016-Feb-11 00:33N 47°35' W 122°22'3 2.8
2016-Feb-10 23:33N 47°33' W 122°20'2 1.9
2016-Feb-10 22:33N 47°34' W 122°22'0 0.0
2016-Feb-10 21:33N 47°34' W 122°21'0 0.0
2016-Feb-10 20:33N 47°34' W 122°22'0 0.3
2016-Feb-10 19:33N 47°34' W 122°21'1 0.6
2016-Feb-10 18:33N 47°34' W 122°21'0 0.3
2016-Feb-10 17:33N 47°33' W 122°21'0 0.3
2016-Feb-10 16:33N 47°34' W 122°21'0 0.0
2016-Feb-10 15:33N 47°34' W 122°21'0 0.0
2016-Feb-10 14:33N 47°34' W 122°21'0 0.0
2016-Feb-10 13:33N 47°34' W 122°21'0 0.3
2016-Feb-10 12:33N 47°34' W 122°21'0 0.4
2016-Feb-10 11:33N 47°34' W 122°21'0 0.0
2016-Feb-10 10:33N 47°34' W 122°21'0 0.0
2016-Feb-10 09:33N 47°34' W 122°21'0 0.0
2016-Feb-10 08:33N 47°34' W 122°21'0 0.0
2016-Feb-10 07:33N 47°34' W 122°21'0 0.0
2016-Feb-10 06:33N 47°34' W 122°21'1 0.5
2016-Feb-10 05:33N 47°34' W 122°21'0 0.1
2016-Feb-10 04:33N 47°34' W 122°21'0 0.2
2016-Feb-10 03:33N 47°34' W 122°21'3 3.3
2016-Feb-10 02:33N 47°35' W 122°25'7 6.9
2016-Feb-10 01:33N 47°29' W 122°30'6 6.5
2016-Feb-10 00:33N 47°23' W 122°32'5 4.7
2016-Feb-09 23:33N 47°18' W 122°33'2 2.3
2016-Feb-09 22:33N 47°16' W 122°33'2 1.5
2016-Feb-09 21:04N 47°14' W 122°35'4 7.4
2016-Feb-09 20:33N 47°17' W 122°32'6 5.6
2016-Feb-09 19:33N 47°23' W 122°32'6 5.8
2016-Feb-09 18:33N 47°28' W 122°31'6 6.2
2016-Feb-09 17:33N 47°34' W 122°27'4 3.5
2016-Feb-09 16:33N 47°35' W 122°22'1 1.2
2016-Feb-09 15:33N 47°36' W 122°20'0 0.0
2016-Feb-09 14:33N 47°36' W 122°20'0 0.1
2016-Feb-09 13:33N 47°36' W 122°20'1 1.0
2016-Feb-09 12:33N 47°35' W 122°22'3 2.8
2016-Feb-09 11:34N 47°33' W 122°20'0 0.0
2016-Feb-09 10:22N 47°33' W 122°20'0 0.1
2016-Feb-09 09:33N 47°33' W 122°20'1 1.1
2016-Feb-09 08:33N 47°34' W 122°21'0 0.5
2016-Feb-09 07:33N 47°34' W 122°21'3 3.3
2016-Feb-09 06:33N 47°34' W 122°26'8 7.6
2016-Feb-09 05:33N 47°27' W 122°31'8 7.8
2016-Feb-09 04:33N 47°20' W 122°34'9 8.0
2016-Feb-09 03:28N 47°12' W 122°39'1 0.0
2016-Feb-08 09:22N 47°12' W 122°38'7 9.2
2016-Feb-08 08:33N 47°19' W 122°33'8 7.5
2016-Feb-08 07:33N 47°26' W 122°31'7 7.2
2016-Feb-08 06:33N 47°33' W 122°27'4 4.5
2016-Feb-08 05:33N 47°34' W 122°21'1 0.9
2016-Feb-08 04:33N 47°35' W 122°22'0 0.3
2016-Feb-08 03:33N 47°34' W 122°21'0 0.0
2016-Feb-08 02:33N 47°34' W 122°21'0 0.0
2016-Feb-08 01:33N 47°34' W 122°21'0 0.0
2016-Feb-08 00:33N 47°34' W 122°21'0 0.0
2016-Feb-07 23:33N 47°34' W 122°21'0 0.0
2016-Feb-07 22:33N 47°34' W 122°21'0 0.0
2016-Feb-07 21:33N 47°34' W 122°21'0 0.0
2016-Feb-07 20:33N 47°34' W 122°21'0 0.0
2016-Feb-07 19:33N 47°34' W 122°21'0 0.0
2016-Feb-07 18:33N 47°34' W 122°21'0 0.0
2016-Feb-07 17:33N 47°34' W 122°21'1 0.6
2016-Feb-07 16:33N 47°34' W 122°21'0 0.1
2016-Feb-07 15:33N 47°34' W 122°21'1 0.6
2016-Feb-07 14:33N 47°34' W 122°21'1 0.1
2016-Feb-07 01:33N 47°35' W 122°22'1 1.4
2016-Feb-07 00:33N 47°34' W 122°21'0 0.5
2016-Feb-06 23:33N 47°34' W 122°21'0 0.0
2016-Feb-06 22:33N 47°34' W 122°21'0 0.0
2016-Feb-06 21:33N 47°34' W 122°21'0 0.0
2016-Feb-06 20:33N 47°34' W 122°21'0 0.0
2016-Feb-06 19:33N 47°34' W 122°21'0 0.0
2016-Feb-06 18:33N 47°34' W 122°21'0 0.0
2016-Feb-06 17:33N 47°34' W 122°21'0 0.0
2016-Feb-06 16:33N 47°34' W 122°21'0 0.0
2016-Feb-06 15:33N 47°34' W 122°21'0 0.0
2016-Feb-06 14:33N 47°34' W 122°21'0 0.4
2016-Feb-06 13:33N 47°35' W 122°22'5 4.7
2016-Feb-06 12:33N 47°38' W 122°26'2 2.1
2016-Feb-06 11:33N 47°40' W 122°24'4 4.1
2016-Feb-06 10:33N 47°39' W 122°18'6 5.8
2016-Feb-06 09:33N 47°45' W 122°16'0 0.1
2016-Feb-06 08:33N 47°45' W 122°16'0 0.0
2016-Feb-06 07:33N 47°45' W 122°16'0 0.0
2016-Feb-06 06:33N 47°45' W 122°16'1 0.6
2016-Feb-06 05:33N 47°45' W 122°16'1 0.5
2016-Feb-06 04:33N 47°45' W 122°15'5 5.0
2016-Feb-06 03:33N 47°40' W 122°15'4 4.4
2016-Feb-06 02:33N 47°39' W 122°20'2 2.4
2016-Feb-06 01:33N 47°40' W 122°24'0 0.0
2016-Feb-06 00:33N 47°40' W 122°24'0 0.2
2016-Feb-05 23:33N 47°40' W 122°24'2 2.1
2016-Feb-05 22:33N 47°39' W 122°27'5 4.7
2016-Feb-05 21:34N 47°36' W 122°22'2 2.3
2016-Feb-05 20:33N 47°33' W 122°21'1 0.6
2016-Feb-05 19:33N 47°33' W 122°20'1 1.4
2016-Feb-05 18:33N 47°34' W 122°21'0 0.2
2016-Feb-05 17:33N 47°34' W 122°21'2 2.0
2016-Feb-05 16:33N 47°36' W 122°22'1 0.5
2016-Feb-05 15:33N 47°36' W 122°23'6 6.1
2016-Feb-05 14:33N 47°31' W 122°29'7 6.6
2016-Feb-05 13:33N 47°25' W 122°32'4 3.8
2016-Feb-05 12:33N 47°21' W 122°32'4 3.7
2016-Feb-05 11:33N 47°17' W 122°32'3 2.9
2016-Feb-05 10:32N 47°15' W 122°34'2 2.2
2016-Feb-05 09:33N 47°13' W 122°36'3 3.0
2016-Feb-05 08:33N 47°10' W 122°38'2 1.5
2016-Feb-05 07:03N 47°08' W 122°39'0 0.0
2016-Feb-05 06:32N 47°08' W 122°39'0 0.0
2016-Feb-05 05:24N 47°08' W 122°39'0 0.0
2016-Feb-05 04:30N 47°08' W 122°39'0 0.0
2016-Feb-05 03:30N 47°08' W 122°39'8 3.6
2016-Feb-05 01:11N 47°16' W 122°33'4 5.7
2016-Feb-05 00:33N 47°19' W 122°34'8 8.1
2016-Feb-04 23:33N 47°27' W 122°31'8 8.1
2016-Feb-04 22:33N 47°35' W 122°26'4 3.9
2016-Feb-04 21:33N 47°34' W 122°21'0 0.0
2016-Feb-04 20:33N 47°34' W 122°21'0 0.0
2016-Feb-04 19:33N 47°34' W 122°21'0 0.0
2016-Feb-04 18:33N 47°34' W 122°21'0 0.2
2016-Feb-04 17:33N 47°34' W 122°21'1 0.6
2016-Feb-04 16:33N 47°34' W 122°21'0 0.0
2016-Feb-04 15:33N 47°34' W 122°21'0 0.0
2016-Feb-04 14:33N 47°34' W 122°21'0 0.0
2016-Feb-04 13:33N 47°34' W 122°21'0 0.0
2016-Feb-04 12:33N 47°34' W 122°21'0 0.0
2016-Feb-04 11:33N 47°34' W 122°21'0 0.0
2016-Feb-04 10:33N 47°34' W 122°21'0 0.0
2016-Feb-04 09:33N 47°34' W 122°21'0 0.0
2016-Feb-04 08:33N 47°34' W 122°21'0 0.0
2016-Feb-04 07:33N 47°34' W 122°21'0 0.0
2016-Feb-04 06:33N 47°34' W 122°21'0 0.0
2016-Feb-04 05:33N 47°34' W 122°21'0 0.0
2016-Feb-04 04:33N 47°34' W 122°21'0 0.0
2016-Feb-04 03:33N 47°34' W 122°21'0 0.0
2016-Feb-04 02:33N 47°34' W 122°21'0 0.0
2016-Feb-04 01:33N 47°34' W 122°21'0 0.0
2016-Feb-04 00:33N 47°34' W 122°21'0 0.0
2016-Feb-03 23:33N 47°34' W 122°21'0 0.0
2016-Feb-03 22:33N 47°34' W 122°21'0 0.0
2016-Feb-03 21:33N 47°34' W 122°21'1 0.5
2016-Feb-03 20:33N 47°34' W 122°21'1 0.7
2016-Feb-03 19:33N 47°34' W 122°22'0 0.0
2016-Feb-03 18:33N 47°34' W 122°22'0 0.0
2016-Feb-03 17:33N 47°34' W 122°22'  
Track history (hours):
 
Tides and Currents Weather Stations Pressure Air Temp Water Temp Dewpoint Dewpoint Depression Visibility Wind Speed Wind Dir Waves Ship Positions

Island Venture

Owner: Island Tug and Barge, Seattle, WA. More information available from US FCC via Universal Licensing System and Coast Guard Vessel Documentation Center.

Last reported at 2016-Feb-13 16:33 UTC. Time now 2016-Feb-13 17:17 UTC.
Position N 47°34' W 122°21'.

Type: Tug. MMSI: 367529420.

Date/timePositionNaut miles runAvg speedWind from/ knotsBaromVisibWave heightAir tempDewpointWater temp
2016-Feb-13 16:33N 47°34' W 122°21'0 0.0
2016-Feb-13 15:33N 47°34' W 122°21'0 0.0
2016-Feb-13 14:33N 47°34' W 122°21'0 0.0
2016-Feb-13 13:33N 47°34' W 122°21'0 0.0
2016-Feb-13 12:33N 47°34' W 122°21'0 0.0
2016-Feb-13 11:33N 47°34' W 122°21'0 0.0
2016-Feb-13 10:33N 47°34' W 122°21'0 0.0
2016-Feb-13 09:33N 47°34' W 122°21'0 0.0
2016-Feb-13 08:33N 47°34' W 122°21'0 0.0
2016-Feb-13 07:33N 47°34' W 122°21'0 0.0
2016-Feb-13 06:33N 47°34' W 122°21'0 0.1
2016-Feb-13 05:33N 47°34' W 122°21'0 0.0
2016-Feb-13 04:33N 47°34' W 122°21'1 0.8
2016-Feb-13 03:33N 47°34' W 122°21'3 3.3
2016-Feb-13 02:33N 47°35' W 122°26'6 6.3
2016-Feb-13 01:33N 47°29' W 122°30'7 6.8
2016-Feb-13 00:33N 47°23' W 122°32'6 5.4
2016-Feb-12 23:31N 47°17' W 122°32'7 6.6
2016-Feb-12 22:29N 47°11' W 122°37'2 0.4
2016-Feb-12 16:28N 47°13' W 122°35'7 7.4
2016-Feb-12 15:33N 47°20' W 122°33'8 7.7
2016-Feb-12 14:33N 47°27' W 122°31'8 8.2
2016-Feb-12 13:33N 47°35' W 122°26'3 3.1
2016-Feb-12 12:33N 47°34' W 122°21'2 1.8
2016-Feb-12 11:33N 47°33' W 122°20'2 1.6
2016-Feb-12 10:33N 47°34' W 122°21'3 3.2
2016-Feb-12 09:33N 47°35' W 122°26'7 7.2
2016-Feb-12 08:33N 47°28' W 122°31'8 7.7
2016-Feb-12 07:33N 47°21' W 122°33'9 8.9
2016-Feb-12 06:29N 47°11' W 122°37'6 0.3
2016-Feb-11 11:20N 47°07' W 122°42'5 5.6
2016-Feb-11 10:23N 47°11' W 122°37'6 7.1
2016-Feb-11 09:31N 47°16' W 122°33'7 6.9
2016-Feb-11 08:33N 47°23' W 122°32'6 6.5
2016-Feb-11 07:33N 47°29' W 122°30'7 7.2
2016-Feb-11 06:33N 47°36' W 122°24'2 2.3
2016-Feb-11 05:33N 47°34' W 122°21'1 0.9
2016-Feb-11 04:33N 47°35' W 122°22'1 1.4
2016-Feb-11 03:33N 47°34' W 122°21'0 0.3
2016-Feb-11 02:33N 47°34' W 122°21'0 0.0
2016-Feb-11 01:33N 47°34' W 122°21'2 1.7
2016-Feb-11 00:33N 47°35' W 122°22'3 2.8
2016-Feb-10 23:33N 47°33' W 122°20'2 1.9
2016-Feb-10 22:33N 47°34' W 122°22'0 0.0
2016-Feb-10 21:33N 47°34' W 122°21'0 0.0
2016-Feb-10 20:33N 47°34' W 122°22'0 0.3
2016-Feb-10 19:33N 47°34' W 122°21'1 0.6
2016-Feb-10 18:33N 47°34' W 122°21'0 0.3
2016-Feb-10 17:33N 47°33' W 122°21'0 0.3
2016-Feb-10 16:33N 47°34' W 122°21'0 0.0
2016-Feb-10 15:33N 47°34' W 122°21'0 0.0
2016-Feb-10 14:33N 47°34' W 122°21'0 0.0
2016-Feb-10 13:33N 47°34' W 122°21'0 0.3
2016-Feb-10 12:33N 47°34' W 122°21'0 0.4
2016-Feb-10 11:33N 47°34' W 122°21'0 0.0
2016-Feb-10 10:33N 47°34' W 122°21'0 0.0
2016-Feb-10 09:33N 47°34' W 122°21'0 0.0
2016-Feb-10 08:33N 47°34' W 122°21'0 0.0
2016-Feb-10 07:33N 47°34' W 122°21'0 0.0
2016-Feb-10 06:33N 47°34' W 122°21'1 0.5
2016-Feb-10 05:33N 47°34' W 122°21'0 0.1
2016-Feb-10 04:33N 47°34' W 122°21'0 0.2
2016-Feb-10 03:33N 47°34' W 122°21'3 3.3
2016-Feb-10 02:33N 47°35' W 122°25'7 6.9
2016-Feb-10 01:33N 47°29' W 122°30'6 6.5
2016-Feb-10 00:33N 47°23' W 122°32'5 4.7
2016-Feb-09 23:33N 47°18' W 122°33'2 2.3
2016-Feb-09 22:33N 47°16' W 122°33'2 1.5
2016-Feb-09 21:04N 47°14' W 122°35'4 7.4
2016-Feb-09 20:33N 47°17' W 122°32'6 5.6
2016-Feb-09 19:33N 47°23' W 122°32'6 5.8
2016-Feb-09 18:33N 47°28' W 122°31'6 6.2
2016-Feb-09 17:33N 47°34' W 122°27'4 3.5
2016-Feb-09 16:33N 47°35' W 122°22'1 1.2
2016-Feb-09 15:33N 47°36' W 122°20'0 0.0
2016-Feb-09 14:33N 47°36' W 122°20'0 0.1
2016-Feb-09 13:33N 47°36' W 122°20'1 1.0
2016-Feb-09 12:33N 47°35' W 122°22'3 2.8
2016-Feb-09 11:34N 47°33' W 122°20'0 0.0
2016-Feb-09 10:22N 47°33' W 122°20'0 0.1
2016-Feb-09 09:33N 47°33' W 122°20'1 1.1
2016-Feb-09 08:33N 47°34' W 122°21'0 0.5
2016-Feb-09 07:33N 47°34' W 122°21'3 3.3
2016-Feb-09 06:33N 47°34' W 122°26'8 7.6
2016-Feb-09 05:33N 47°27' W 122°31'8 7.8
2016-Feb-09 04:33N 47°20' W 122°34'9 8.0
2016-Feb-09 03:28N 47°12' W 122°39'1 0.0
2016-Feb-08 09:22N 47°12' W 122°38'7 9.2
2016-Feb-08 08:33N 47°19' W 122°33'8 7.5
2016-Feb-08 07:33N 47°26' W 122°31'7 7.2
2016-Feb-08 06:33N 47°33' W 122°27'4 4.5
2016-Feb-08 05:33N 47°34' W 122°21'1 0.9
2016-Feb-08 04:33N 47°35' W 122°22'0 0.3
2016-Feb-08 03:33N 47°34' W 122°21'0 0.0
2016-Feb-08 02:33N 47°34' W 122°21'0 0.0
2016-Feb-08 01:33N 47°34' W 122°21'0 0.0
2016-Feb-08 00:33N 47°34' W 122°21'0 0.0
2016-Feb-07 23:33N 47°34' W 122°21'0 0.0
2016-Feb-07 22:33N 47°34' W 122°21'0 0.0
2016-Feb-07 21:33N 47°34' W 122°21'0 0.0
2016-Feb-07 20:33N 47°34' W 122°21'0 0.0
2016-Feb-07 19:33N 47°34' W 122°21'0 0.0
2016-Feb-07 18:33N 47°34' W 122°21'0 0.0
2016-Feb-07 17:33N 47°34' W 122°21'1 0.6
2016-Feb-07 16:33N 47°34' W 122°21'0 0.1
2016-Feb-07 15:33N 47°34' W 122°21'1 0.6
2016-Feb-07 14:33N 47°34' W 122°21'1 0.1
2016-Feb-07 01:33N 47°35' W 122°22'1 1.4
2016-Feb-07 00:33N 47°34' W 122°21'0 0.5
2016-Feb-06 23:33N 47°34' W 122°21'0 0.0
2016-Feb-06 22:33N 47°34' W 122°21'0 0.0
2016-Feb-06 21:33N 47°34' W 122°21'0 0.0
2016-Feb-06 20:33N 47°34' W 122°21'0 0.0
2016-Feb-06 19:33N 47°34' W 122°21'0 0.0
2016-Feb-06 18:33N 47°34' W 122°21'0 0.0
2016-Feb-06 17:33N 47°34' W 122°21'0 0.0
2016-Feb-06 16:33N 47°34' W 122°21'0 0.0
2016-Feb-06 15:33N 47°34' W 122°21'0 0.0
2016-Feb-06 14:33N 47°34' W 122°21'0 0.4
2016-Feb-06 13:33N 47°35' W 122°22'5 4.7
2016-Feb-06 12:33N 47°38' W 122°26'2 2.1
2016-Feb-06 11:33N 47°40' W 122°24'4 4.1
2016-Feb-06 10:33N 47°39' W 122°18'6 5.8
2016-Feb-06 09:33N 47°45' W 122°16'0 0.1
2016-Feb-06 08:33N 47°45' W 122°16'0 0.0
2016-Feb-06 07:33N 47°45' W 122°16'0 0.0
2016-Feb-06 06:33N 47°45' W 122°16'1 0.6
2016-Feb-06 05:33N 47°45' W 122°16'1 0.5
2016-Feb-06 04:33N 47°45' W 122°15'5 5.0
2016-Feb-06 03:33N 47°40' W 122°15'4 4.4
2016-Feb-06 02:33N 47°39' W 122°20'2 2.4
2016-Feb-06 01:33N 47°40' W 122°24'0 0.0
2016-Feb-06 00:33N 47°40' W 122°24'0 0.2
2016-Feb-05 23:33N 47°40' W 122°24'2 2.1
2016-Feb-05 22:33N 47°39' W 122°27'5 4.7
2016-Feb-05 21:34N 47°36' W 122°22'2 2.3
2016-Feb-05 20:33N 47°33' W 122°21'1 0.6
2016-Feb-05 19:33N 47°33' W 122°20'1 1.4
2016-Feb-05 18:33N 47°34' W 122°21'0 0.2
2016-Feb-05 17:33N 47°34' W 122°21'2 2.0
2016-Feb-05 16:33N 47°36' W 122°22'1 0.5
2016-Feb-05 15:33N 47°36' W 122°23'6 6.1
2016-Feb-05 14:33N 47°31' W 122°29'7 6.6
2016-Feb-05 13:33N 47°25' W 122°32'4 3.8
2016-Feb-05 12:33N 47°21' W 122°32'4 3.7
2016-Feb-05 11:33N 47°17' W 122°32'3 2.9
2016-Feb-05 10:32N 47°15' W 122°34'2 2.2
2016-Feb-05 09:33N 47°13' W 122°36'3 3.0
2016-Feb-05 08:33N 47°10' W 122°38'2 1.5
2016-Feb-05 07:03N 47°08' W 122°39'0 0.0
2016-Feb-05 06:32N 47°08' W 122°39'0 0.0
2016-Feb-05 05:24N 47°08' W 122°39'0 0.0
2016-Feb-05 04:30N 47°08' W 122°39'0 0.0
2016-Feb-05 03:30N 47°08' W 122°39'8 3.6
2016-Feb-05 01:11N 47°16' W 122°33'4 5.7
2016-Feb-05 00:33N 47°19' W 122°34'8 8.1
2016-Feb-04 23:33N 47°27' W 122°31'8 8.1
2016-Feb-04 22:33N 47°35' W 122°26'4 3.9
2016-Feb-04 21:33N 47°34' W 122°21'0 0.0
2016-Feb-04 20:33N 47°34' W 122°21'0 0.0
2016-Feb-04 19:33N 47°34' W 122°21'0 0.0
2016-Feb-04 18:33N 47°34' W 122°21'0 0.2
2016-Feb-04 17:33N 47°34' W 122°21'1 0.6
2016-Feb-04 16:33N 47°34' W 122°21'0 0.0
2016-Feb-04 15:33N 47°34' W 122°21'0 0.0
2016-Feb-04 14:33N 47°34' W 122°21'0 0.0
2016-Feb-04 13:33N 47°34' W 122°21'0 0.0
2016-Feb-04 12:33N 47°34' W 122°21'0 0.0
2016-Feb-04 11:33N 47°34' W 122°21'0 0.0
2016-Feb-04 10:33N 47°34' W 122°21'0 0.0
2016-Feb-04 09:33N 47°34' W 122°21'0 0.0
2016-Feb-04 08:33N 47°34' W 122°21'0 0.0
2016-Feb-04 07:33N 47°34' W 122°21'0 0.0
2016-Feb-04 06:33N 47°34' W 122°21'0 0.0
2016-Feb-04 05:33N 47°34' W 122°21'0 0.0
2016-Feb-04 04:33N 47°34' W 122°21'0 0.0
2016-Feb-04 03:33N 47°34' W 122°21'0 0.0
2016-Feb-04 02:33N 47°34' W 122°21'0 0.0
2016-Feb-04 01:33N 47°34' W 122°21'0 0.0
2016-Feb-04 00:33N 47°34' W 122°21'0 0.0
2016-Feb-03 23:33N 47°34' W 122°21'0 0.0
2016-Feb-03 22:33N 47°34' W 122°21'0 0.0
2016-Feb-03 21:33N 47°34' W 122°21'1 0.5
2016-Feb-03 20:33N 47°34' W 122°21'1 0.7
2016-Feb-03 19:33N 47°34' W 122°22'0 0.0
2016-Feb-03 18:33N 47°34' W 122°22'0 0.0
2016-Feb-03 17:33N 47°34' W 122°22'  

Dump ship's entire track history